map of BEW home
BEW - Airport
Location
City:  Beira, Sofala, Mozambique
Name:Beira Airport
ICAO:FQBR
IATA:BEW

Details
Type:Airport (Aerodrome, Airfield)
Use:Public/Civil, International (customs port of entry)
Latitude:1947'47"S (-19.796418)
Longitude:3454'27"E (34.907556)
Datum:WGS 1984
Elevation:33 ft (10 m)
Variation:12.15W (WMM2015 magnetic declination)
-0.06 annual change
Runways:3
Longest:7874 × 148 ft (2400 × 45 m), paved

Time
Time Zone:UTC+2
Local Time:

Weather
METAR:FQBR 150900Z 12008KT 9999 SCT018 BKN030 29/22 Q1014

Related Locations
Nearby:
Farthest:ITO: 11800 mi / 18990 km
Hilo [Hilo Intl], Hawaii, HI, US

Find:

   beyond  
but within

Other Information
Maps:
NOTAMs:
Links:
Sources:

  
  • flag of Mozambique
  

Sectional Chart

Flight Planning
at skyvector.com

Satellite Image

Google Maps Satellite view

 

Copyright © 2004-2018 Karl L. Swartz. All rights reserved.
The Great Circle Mapper name and logo are trademarks of the Great Circle Mapper.
All other trademarks mentioned herein belong to their respective owners.
Please see credits for attibutions and further copyright information.

  Follow gcmap on Facebook Follow gcmap on Twitter Follow gcmap on Google+ GCmap on LinkedIn

hCard Microformat

Geo Microformat